Tiempo atmosférico en la estación meteorológica de Figueres, Girona (47 m.)



Fecha
DESCASC
Temp. máxima en grados centígrados (hora)
DESCASC
Temp. mínima en grados centígrados (hora)
DESCASC
Temp. media en grados centígrados
DESCASC
Racha de viento máxima en m/sg (hora)
DESCASC
Velocidad máxima media en intervalos de 10 minutos(hora)
DESCASC
Precipitaciones diarias en mm
DESCASC
Precipitaciones de 00:00 a 06:00 en mm
DESCASC
Precipitaciones de 06:00 a 12:00 en mm
DESCASC
Precipitaciones de 12:00 a 18:00 en mm
DESCASC
Precipitaciones de 18:00 a 24:00 en mm
DESCASC
23-05-2018 25.7 (12:30) 13.4 (06:40) 19.6 7.22 (14:10) 3.33 (14:20) 0.2 0 0 0.2 0
22-05-2018 24.5 (13:40) 14.3 (06:20) 19.4 6.67 (13:00) 3.06 (13:00) 1.2 0 0 1.2 0
21-05-2018 24.3 (15:10) 12.7 (05:50) 18.5 6.11 (15:20) 3.06 (15:50) 0 0 0 0 0
20-05-2018 25.1 (12:50) 12.5 (00:00) 18.8 8.33 (13:10) 4.17 (13:50) 0 0 0 0 0
19-05-2018 25.6 (13:30) 12.6 (00:00) 19.1 7.5 (16:10) 3.61 (17:20) 0 0 0 0 0
18-05-2018 24.7 (16:10) 12 (00:00) 18.4 6.39 (14:20) 3.61 (16:30) 0 0 0 0 0
17-05-2018 24.7 (16:10) 11.9 (00:00) 18.3 10.56 (10:40) 4.44 (10:40) 0 0 0 0 0
16-05-2018 24 (15:00) 13.2 (00:00) 18.6 8.61 (05:30) 3.89 (05:30) 0 0 0 0 0
15-05-2018 22.6 (18:10) 10.7 (00:00) 16.7 8.06 (19:40) 3.61 (19:00) 0 0 0 0 0
14-05-2018 18.5 (12:40) 8 (00:00) 13.3 8.33 (15:00) 4.72 (15:00) 1.6 0 0 1.4 0.2
13-05-2018 17.1 (16:10) 7.5 (00:00) 12.3 14.17 (01:50) 6.11 (00:50) 16.8 13 3.8 0 0
12-05-2018 24.9 (15:20) 9.7 (00:00) 17.3 14.17 (23:10) 5.83 (23:10) 3.8 0 0 0 3.8
11-05-2018 26.1 (16:40) 15.3 (07:30) 20.7 7.5 (00:20) 3.61 (00:30) 0 0 0 0 0
10-05-2018 21.2 (17:10) 15.5 (00:00) 18.4 12.5 (12:20) 5.83 (12:20) 0 0 0 0 0
09-05-2018 23.4 (13:20) 16.4 (00:00) 19.9 10 (07:50) 4.72 (10:40) 0 0 0 0 0
08-05-2018 25.2 (12:40) 15.2 (00:00) 20.2 6.67 (11:20) 3.33 (11:20) 0 0 0 0 0
07-05-2018 26.2 (15:30) 16.1 (00:00) 21.2 6.94 (15:10) 3.06 (14:20) 5.4 0 1 0 4.4
06-05-2018 25.6 (16:10) 14.6 (00:00) 20.1 5.83 (06:50) 3.06 (07:00) 3.4 0 2.6 0 0.8
05-05-2018 23.3 (14:50) 17.5 (00:00) 20.4 11.67 (01:10) 5 (10:10) 0 0 0 0 0
04-05-2018 20.5 (15:20) 15.6 (00:00) 18.1 16.39 (05:50) 7.22 (16:50) 0 0 0 0 0
03-05-2018 19.8 (16:30) 13.2 (00:00) 16.5 17.22 (21:30) 7.22 (19:50) 0 0 0 0 0
02-05-2018 22.2 (16:10) 6.8 (00:00) 14.5 13.89 (14:40) 5.83 (14:40) 0 0 0 0 0
01-05-2018 18 (17:10) 10.2 (06:40) 14.1 11.94 (16:30) 5.83 (00:50) 0 0 0 0 0
30-04-2018 20.2 (17:30) 6.5 (00:00) 13.4 12.78 (23:10) 6.39 (23:30) 0 0 0 0 0
29-04-2018 19 (15:40) 10.2 (00:00) 14.6 12.78 (15:50) 6.11 (13:30) 4.2 0 3.4 0.8 0
28-04-2018 23.7 (14:10) 12.8 (00:00) 18.3 8.89 (13:30) 4.72 (15:50) 0 0 0 0 0

Gráficas

Temp. máximas Temp. mínimas Temp. medias Precipitaciones Rachas de viento máximas Velocidades máximas media en intervalos de 10 minutos

Datos horarios

Fecha y hora oficial Temperatura (ºC) Velocidad del viento (km/h) Dirección del viento Racha (km/h) Dirección de racha Precipitación (mm) Presión (hPa) Tendencia (hPa) Humedad (%)
2018-05-27 23:00:00 20.4 11 Este 22 Este 0 -- -- 67
2018-05-27 22:00:00 21.3 7 Este 16 Este 0 -- -- 64
2018-05-27 21:00:00 22.8 5 Nordeste 12 Nordeste 0 -- -- 58
2018-05-27 20:00:00 23.5 5 Nordeste 10 Nordeste 0 -- -- 55
2018-05-27 19:00:00 23.5 6 Este 18 Este 0 -- -- 56
2018-05-27 18:00:00 24.4 9 Este 26 Sudeste 0 -- -- 51
2018-05-27 17:00:00 25 10 Sudeste 22 Nordeste 0 -- -- 61
2018-05-27 16:00:00 25.5 8 Este 19 Este 0 -- -- 50
2018-05-27 15:00:00 25.3 6 Este 18 Este 0 -- -- 53
2018-05-27 14:00:00 25.7 8 Este 21 Este 0 -- -- 50
2018-05-27 13:00:00 25.8 8 Este 18 Este 0 -- -- 48
2018-05-27 12:00:00 23.8 7 Este 17 Este 0 -- -- 60
2018-05-27 11:00:00 23.5 5 Sudeste 14 Este 0 -- -- 64
2018-05-27 10:00:00 22.2 4 Nordeste 13 Nordeste 0 -- -- 65
2018-05-27 09:00:00 20.1 5 Este 21 Nordeste 0 -- -- 72
2018-05-27 08:00:00 18.9 9 Nordeste 18 Nordeste 0 -- -- 74
2018-05-27 07:00:00 17.1 3 Norte 12 Nordeste 0 -- -- 78
2018-05-27 06:00:00 15.3 0 Calma 8 Norte 0 -- -- 86
2018-05-27 05:00:00 15.2 4 Noroeste 6 Noroeste 0 -- -- 89
2018-05-27 04:00:00 15.9 0 Calma 6 Sudoeste 0 -- -- 91
2018-05-27 03:00:00 16.4 2 Oeste 8 Sur 0 -- -- 90
2018-05-27 02:00:00 17.6 5 Noroeste 8 Norte 0 -- -- 90
2018-05-27 01:00:00 18 2 Oeste 6 Noroeste 0 -- -- 88
2018-05-27 00:00:00 18.9 3 Sur 5 Sudeste 0 -- -- 90
2018-05-26 23:00:00 19.1 2 Sudoeste 9 Sur 0 -- -- 88
2018-05-26 22:00:00 19.5 0 Calma 10 Sur 0 -- -- 86
2018-05-26 21:00:00 20.6 6 Sur 13 Sudeste 0 -- -- 80
2018-05-26 20:00:00 23.2 6 Sudeste 17 Sudoeste 0 -- -- 69
2018-05-26 19:00:00 26 12 Sudoeste 31 Sudoeste 0 -- -- 44
2018-05-26 18:00:00 25.3 13 Sudoeste 34 Sudoeste 0 -- -- 48
2018-05-26 17:00:00 25.8 13 Sur 26 Sur 0 -- -- 50
2018-05-26 16:00:00 25.7 10 Sur 28 Sur 0 -- -- 49
2018-05-26 15:00:00 25.8 14 Sur 32 Sudoeste 0 -- -- 42
2018-05-26 14:00:00 26 11 Sur 27 Sudoeste 0 -- -- 42
2018-05-26 13:00:00 25.1 9 Sur 24 Sudeste 0 -- -- 46
2018-05-26 12:00:00 23.4 6 Este 12 Sudeste 0 -- -- 63
2018-05-26 11:00:00 22.3 5 Sudeste 13 Sudeste 0 -- -- 68
2018-05-26 10:00:00 20.5 3 Oeste 10 Nordeste 0 -- -- 78
2018-05-26 09:00:00 18.3 3 Sudoeste 15 Noroeste 0 -- -- 89
2018-05-26 08:00:00 16.2 5 Noroeste 19 Este 0.6 -- -- 93
2018-05-26 07:00:00 16.5 3 Sur 11 Nordeste 0.2 -- -- 92
2018-05-26 06:00:00 16.5 4 Sudoeste 20 Noroeste 1 -- -- 90
2018-05-26 05:00:00 16.7 3 Noroeste 12 Noroeste 0.2 -- -- 86
2018-05-26 04:00:00 16.9 3 Norte 13 Noroeste 0 -- -- 83
2018-05-26 03:00:00 16.4 5 Oeste 12 Oeste 0 -- -- 81
2018-05-26 02:00:00 17.6 4 Noroeste 10 Nordeste 0 -- -- 77
2018-05-26 01:00:00 18.2 2 Nordeste 6 Este 0 -- -- 77
2018-05-26 00:00:00 18.2 2 Noroeste 5 Nordeste 0 -- -- 78
2018-05-25 23:00:00 18.5 0 Calma 7 Sudoeste 0 -- -- 79
2018-05-25 22:00:00 19.3 3 Sur 11 Sur 0 -- -- 75
2018-05-25 21:00:00 20.6 4 Sur 13 Sudeste 0 -- -- 67
2018-05-25 20:00:00 22.5 8 Sur 16 Sur 0 -- -- 58
2018-05-25 19:00:00 23.5 6 Sur 20 Sudeste 0 -- -- 53
2018-05-25 18:00:00 23.7 9 Sur 21 Sur 0 -- -- 52
2018-05-25 17:00:00 25.2 8 Sur 22 Sudeste 0 -- -- 46
2018-05-25 16:00:00 24.8 10 Sur 21 Sur 0 -- -- 47
2018-05-25 15:00:00 24.7 9 Sur 23 Sudoeste 0 -- -- 46
2018-05-25 14:00:00 22.5 9 Sudoeste 25 Sudeste 0 -- -- 54
2018-05-25 13:00:00 24.9 8 Sur 16 Sudoeste 0 -- -- 52
2018-05-25 12:00:00 23.9 7 Sur 15 Sur 0 -- -- 57
2018-05-25 11:00:00 22.9 5 Sur 13 Sur 0 -- -- 58
2018-05-25 10:00:00 21.2 4 Sur 9 Sur 0 -- -- 64
2018-05-25 09:00:00 19 3 Sudeste 5 Noroeste 0 -- -- 77
2018-05-25 08:00:00 16.3 0 Calma 6 Oeste 0 -- -- 83
2018-05-25 07:00:00 15.1 0 Calma 5 Nordeste 0 -- -- 88
2018-05-25 06:00:00 14.9 2 Norte 6 Noroeste 0 -- -- 87
2018-05-25 05:00:00 15.3 0 Calma 7 Noroeste 0 -- -- 85
2018-05-25 04:00:00 15.7 3 Oeste 6 Noroeste 0 -- -- 84
2018-05-25 03:00:00 16.6 0 Calma 6 Este 0 -- -- 83
2018-05-25 02:00:00 17.4 0 Calma 8 Norte 0 -- -- 78
2018-05-25 01:00:00 18.4 3 Nordeste 6 Norte 0 -- -- 77
2018-05-25 00:00:00 18.8 3 Nordeste 8 Nordeste 0 -- -- 77
2018-05-24 23:00:00 19.5 4 Nordeste 10 Este 0 -- -- 76
2018-05-24 22:00:00 20.9 0 Calma 10 Norte 0 -- -- 62
2018-05-24 21:00:00 22.6 5 Este 14 Sudoeste 0 -- -- 58
2018-05-24 20:00:00 24.7 5 Oeste 18 Sudoeste 0 -- -- 52
2018-05-24 19:00:00 26.2 8 Nordeste 18 Norte 0 -- -- 55
2018-05-24 18:00:00 25 9 Este 21 Sudeste 0 -- -- 59
2018-05-24 17:00:00 25.7 10 Sudeste 26 Este 0 -- -- 55
2018-05-24 16:00:00 25.9 8 Este 21 Sur 0 -- -- 57
2018-05-24 15:00:00 25.9 10 Sudeste 24 Sur 0 -- -- 55
2018-05-24 14:00:00 25.4 9 Sudeste 19 Sudeste 0 -- -- 65
2018-05-24 13:00:00 24.4 7 Sudeste 17 Sudeste 0 -- -- 66
2018-05-24 12:00:00 22.4 4 Este 13 Nordeste 0 -- -- 73
2018-05-24 11:00:00 20.8 6 Este 10 Este 0 -- -- 77
2018-05-24 10:00:00 19.2 4 Sur 10 Noroeste 0 -- -- 83
2018-05-24 09:00:00 18.1 4 Oeste 10 Sudoeste 0 -- -- 87
2018-05-24 08:00:00 16.8 3 Norte 6 Norte 0 -- -- 91
2018-05-24 07:00:00 16.1 0 Calma 7 Sudoeste 0 -- -- 94
2018-05-24 06:00:00 16.3 3 Oeste 5 Norte 0 -- -- 92
2018-05-24 05:00:00 16.3 2 Este 6 Este 0 -- -- 92
2018-05-24 04:00:00 16.7 2 Noroeste 8 Oeste 0 -- -- 92
2018-05-24 03:00:00 16.8 0 Calma 10 Noroeste 0 -- -- 92
2018-05-24 02:00:00 17 6 Noroeste 10 Noroeste 0 -- -- 91
2018-05-24 01:00:00 17.8 4 Noroeste 9 Noroeste 0 -- -- 91
2018-05-24 00:00:00 18.9 5 Noroeste 9 Noroeste 0 -- -- 87
2018-05-23 23:00:00 19.7 4 Noroeste 9 Noroeste 0 -- -- 86
2018-05-23 22:00:00 20.1 3 Oeste 8 Oeste 0 -- -- 81
2018-05-23 21:00:00 20.8 0 Calma 5 Sur 0 -- -- 71
2018-05-23 20:00:00 21.4 4 Nordeste 13 Nordeste 0 -- -- 70
2018-05-23 19:00:00 22 5 Nordeste 13 Nordeste 0 -- -- 68
2018-05-23 18:00:00 20.2 5 Nordeste 14 Nordeste 0 -- -- 77
2018-05-23 17:00:00 20.5 3 Este 12 Sur 0.2 -- -- 76
2018-05-23 16:00:00 21.3 7 Sudeste 24 Sur 0 -- -- 72
2018-05-23 15:00:00 23.6 10 Sur 26 Sur 0 -- -- 58
2018-05-23 14:00:00 25.2 11 Sur 23 Sudeste 0 -- -- 52
2018-05-23 13:00:00 25.4 11 Sur 22 Sur 0 -- -- 51
2018-05-23 12:00:00 25.1 8 Sur 26 Sudeste 0 -- -- 54
2018-05-23 11:00:00 24.5 4 Sudeste 9 Oeste 0 -- -- 51
2018-05-23 10:00:00 21.7 3 Oeste 7 Noroeste 0 -- -- 61
2018-05-23 09:00:00 18.9 4 Noroeste 5 Norte 0 -- -- 72
2018-05-23 08:00:00 15.5 0 Calma 4 Noroeste 0 -- -- 87
2018-05-23 07:00:00 13.7 0 Calma 4 Este 0 -- -- 93
2018-05-23 06:00:00 13.5 0 Calma 5 Oeste 0 -- -- 91
2018-05-23 05:00:00 13.9 0 Calma 8 Noroeste 0 -- -- 91
2018-05-23 04:00:00 13.9 4 Noroeste 8 Oeste 0 -- -- 89
2018-05-23 03:00:00 14.1 4 Norte 9 Norte 0 -- -- 90
2018-05-23 02:00:00 15 3 Noroeste 6 Noroeste 0 -- -- 89
2018-05-23 01:00:00 15.6 4 Noroeste 8 Noroeste 0 -- -- 89
2018-05-23 00:00:00 17 3 Noroeste 6 Noroeste 0 -- -- 90
2018-05-22 23:00:00 17.8 2 Noroeste 6 Noroeste 0 -- -- 88
2018-05-22 22:00:00 18.5 2 Norte 7 Noroeste 0 -- -- 82
2018-05-22 21:00:00 19.6 2 Noroeste 9 Noroeste 0 -- -- 72
2018-05-22 20:00:00 19.6 4 Sudoeste 13 Oeste 0 -- -- 75
2018-05-22 19:00:00 19.8 6 Noroeste 13 Oeste 0 -- -- 77
2018-05-22 18:00:00 19.1 5 Noroeste 12 Noroeste 0.6 -- -- 80
2018-05-22 17:00:00 18.1 5 Norte 15 Noroeste 0.6 -- -- 84
2018-05-22 16:00:00 19.5 5 Noroeste 22 Oeste 0 -- -- 68
2018-05-22 15:00:00 22.2 11 Sudoeste 23 Sur 0 -- -- 62
2018-05-22 14:00:00 24.3 11 Sur 23 Sudoeste 0 -- -- 55
2018-05-22 13:00:00 24.1 11 Sudeste 24 Sudeste 0 -- -- 56
2018-05-22 12:00:00 23.5 6 Sur 14 Sur 0 -- -- 56
2018-05-22 11:00:00 21.4 5 Oeste 14 Norte 0 -- -- 64
2018-05-22 10:00:00 18.1 5 Noroeste 13 Noroeste 0 -- -- 77
2018-05-22 09:00:00 17.2 5 Noroeste 12 Noroeste 0 -- -- 83
2018-05-22 08:00:00 16.4 5 Noroeste 10 Noroeste 0 -- -- 86
2018-05-22 07:00:00 15 5 Noroeste 9 Oeste 0 -- -- 87
2018-05-22 06:00:00 14.5 0 Calma 5 Sudoeste 0 -- -- 87
2018-05-22 05:00:00 15.4 0 Calma 10 Nordeste 0 -- -- 84
2018-05-22 04:00:00 16.3 5 Nordeste 17 Norte 0 -- -- 84
2018-05-22 03:00:00 16 6 Este 12 Este 0 -- -- 92
2018-05-22 02:00:00 16.5 0 Calma 6 Sudeste 0 -- -- 87
2018-05-22 01:00:00 17.2 4 Este 9 Nordeste 0 -- -- 86
2018-05-22 00:00:00 17.6 2 Oeste 6 Oeste 0 -- -- 80
2018-05-21 23:00:00 18.5 3 Oeste 9 Sur 0 -- -- 77
2018-05-21 22:00:00 19.3 5 Sur 8 Sudoeste 0 -- -- 75
2018-05-21 21:00:00 20.1 4 Sudoeste 11 Sur 0 -- -- 70
2018-05-21 20:00:00 20.9 8 Sur 16 Sur 0 -- -- 68
2018-05-21 19:00:00 21.6 9 Sur 19 Sur 0 -- -- 67
2018-05-21 18:00:00 22.8 8 Sur 20 Sur 0 -- -- 59
2018-05-21 17:00:00 23.1 8 Sur 21 Sur 0 -- -- 56
2018-05-21 16:00:00 23.8 9 Sudoeste 22 Sudeste 0 -- -- 53
2018-05-21 15:00:00 24.2 8 Sur 16 Sudoeste 0 -- -- 52
2018-05-21 14:00:00 23.2 7 Sur 15 Sur 0 -- -- 54
2018-05-21 13:00:00 22.8 7 Sur 15 Sur 0 -- -- 51
2018-05-21 12:00:00 22.7 4 Sur 12 Sur 0 -- -- 49
2018-05-21 11:00:00 21.6 6 Sudeste 13 Sudeste 0 -- -- 52
2018-05-21 10:00:00 20.7 3 Nordeste 9 Este 0 -- -- 61
2018-05-21 09:00:00 16.8 3 Noroeste 8 Norte 0 -- -- 79
2018-05-21 08:00:00 15.7 3 Nordeste 8 Nordeste 0 -- -- 80
2018-05-21 07:00:00 13.4 0 Calma 7 Norte 0 -- -- 87
2018-05-21 06:00:00 12.7 3 Noroeste 6 Noroeste 0 -- -- 89
2018-05-21 05:00:00 13.9 4 Este 10 Norte 0 -- -- 86
2018-05-21 04:00:00 13.5 4 Noroeste 7 Noroeste 0 -- -- 85
2018-05-21 03:00:00 14.4 4 Sudoeste 6 Sudoeste 0 -- -- 84
2018-05-21 02:00:00 15.1 2 Norte 8 Noroeste 0 -- -- 82
2018-05-21 01:00:00 16.3 0 Calma 7 Este 0 -- -- 81
2018-05-21 00:00:00 16.7 4 Este 7 Este 0 -- -- 87
2018-05-20 23:00:00 16.9 3 Sudeste 8 Sur 0 -- -- 89
2018-05-20 22:00:00 17.5 4 Sudoeste 12 Sudeste 0 -- -- 82
2018-05-20 21:00:00 19.9 5 Sur 12 Sudeste 0 -- -- 64
2018-05-20 20:00:00 21.1 5 Sudoeste 13 Sudoeste 0 -- -- 57
2018-05-20 19:00:00 23.1 8 Sudoeste 19 Sur 0 -- -- 52
2018-05-20 18:00:00 23.7 11 Sur 19 Sur 0 -- -- 52
2018-05-20 17:00:00 24.2 8 Sudeste 24 Sudeste 0 -- -- 45
2018-05-20 16:00:00 24.9 11 Sudeste 28 Sudeste 0 -- -- 43
2018-05-20 15:00:00 24.9 11 Sudeste 28 Sur 0 -- -- 44
2018-05-20 14:00:00 24.6 12 Sudeste 30 Sudeste 0 -- -- 46
2018-05-20 13:00:00 25 11 Sudeste 23 Sur 0 -- -- 46
2018-05-20 12:00:00 24.9 8 Sudeste 21 Sudeste 0 -- -- 46
2018-05-20 11:00:00 23.9 5 Este 16 Este 0 -- -- 51
2018-05-20 10:00:00 22.5 5 Este 14 Nordeste 0 -- -- 57
2018-05-20 09:00:00 18.9 2 Noroeste 9 Noroeste 0 -- -- 74
2018-05-20 08:00:00 15.1 3 Noroeste 10 Noroeste 0 -- -- 84
2018-05-20 07:00:00 13.3 5 Noroeste 11 Noroeste 0 -- -- 87
2018-05-20 06:00:00 12.5 8 Noroeste 13 Noroeste 0 -- -- 89
2018-05-20 05:00:00 13.7 6 Noroeste 12 Noroeste 0 -- -- 85
2018-05-20 04:00:00 14.6 6 Noroeste 10 Noroeste 0 -- -- 82
2018-05-20 03:00:00 15 4 Noroeste 10 Oeste 0 -- -- 81
2018-05-20 02:00:00 16.2 4 Noroeste 14 Nordeste 0 -- -- 77
2018-05-20 01:00:00 15.8 4 Norte 12 Norte 0 -- -- 81
2018-05-20 00:00:00 17.4 5 Oeste 16 Nordeste 0 -- -- 76
2018-05-19 23:00:00 17.3 4 Noroeste 8 Noroeste 0 -- -- 84
2018-05-19 22:00:00 18.3 4 Noroeste 11 Oeste 0 -- -- 85
2018-05-19 21:00:00 19.9 5 Noroeste 8 Noroeste 0 -- -- 81
2018-05-19 20:00:00 20.9 5 Noroeste 12 Oeste 0 -- -- 73
2018-05-19 19:00:00 19.2 5 Noroeste 12 Norte 0 -- -- 81
2018-05-19 18:00:00 18.7 6 Norte 23 Oeste 0 -- -- 75
2018-05-19 17:00:00 19.2 8 Noroeste 27 Oeste 0 -- -- 68
2018-05-19 16:00:00 23.6 10 Sudoeste 24 Sur 0 -- -- 52
2018-05-19 15:00:00 25.3 11 Sur 24 Sur 0 -- -- 50
2018-05-19 14:00:00 24.7 8 Sur 19 Sudoeste 0 -- -- 50
2018-05-19 13:00:00 25 8 Sur 19 Sudoeste 0 -- -- 49
2018-05-19 12:00:00 25 7 Sudeste 15 Sudeste 0 -- -- 47
2018-05-19 11:00:00 24.3 5 Sudeste 11 Sudeste 0 -- -- 46
2018-05-19 10:00:00 21.8 2 Sur 9 Noroeste 0 -- -- 54
2018-05-19 09:00:00 17.8 5 Oeste 10 Noroeste 0 -- -- 68
2018-05-19 08:00:00 15.5 4 Noroeste 8 Noroeste 0 -- -- 74
2018-05-19 07:00:00 13 4 Noroeste 8 Noroeste 0 -- -- 81
2018-05-19 06:00:00 12.6 4 Noroeste 6 Oeste 0 -- -- 87
2018-05-19 05:00:00 12.8 0 Calma 6 Noroeste 0 -- -- 88
2018-05-19 04:00:00 13 3 Noroeste 8 Oeste 0 -- -- 87
2018-05-19 03:00:00 13.7 3 Noroeste 6 Noroeste 0 -- -- 88
2018-05-19 02:00:00 14.7 0 Calma 7 Norte 0 -- -- 87
2018-05-19 01:00:00 15.5 4 Norte 6 Noroeste 0 -- -- 86
2018-05-19 00:00:00 16.3 0 Calma 5 Oeste 0 -- -- 83
2018-05-18 23:00:00 17.4 0 Calma 5 Este 0 -- -- 79
2018-05-18 22:00:00 17.8 2 Sudoeste 6 Sudoeste 0 -- -- 76
2018-05-18 21:00:00 18.6 4 Sudoeste 9 Sur 0 -- -- 74
2018-05-18 20:00:00 19.9 4 Sudoeste 13 Sudoeste 0 -- -- 68
2018-05-18 19:00:00 21.8 6 Sur 16 Sur 0 -- -- 61
2018-05-18 18:00:00 23.1 10 Sur 19 Sur 0 -- -- 58
2018-05-18 17:00:00 23.9 8 Sur 22 Sudoeste 0 -- -- 53
2018-05-18 16:00:00 24.6 8 Sudeste 21 Sudeste 0 -- -- 46
2018-05-18 15:00:00 24.5 7 Sudeste 23 Sur 0 -- -- 50
2018-05-18 14:00:00 23.8 7 Sur 22 Sur 0 -- -- 57
2018-05-18 13:00:00 23.4 7 Sur 18 Sur 0 -- -- 55
2018-05-18 12:00:00 22.9 8 Sudeste 19 Este 0 -- -- 56
2018-05-18 11:00:00 22.4 7 Sudeste 15 Sudeste 0 -- -- 58
2018-05-18 10:00:00 20.7 4 Nordeste 8 Este 0 -- -- 62
2018-05-18 09:00:00 16.7 2 Oeste 6 Noroeste 0 -- -- 78
2018-05-18 08:00:00 14.3 0 Calma 5 Sudeste 0 -- -- 81
2018-05-18 07:00:00 12.2 0 Calma 5 Noroeste 0 -- -- 86
2018-05-18 06:00:00 12.2 3 Noroeste 8 Norte 0 -- -- 86
2018-05-18 05:00:00 12.8 2 Oeste 6 Noroeste 0 -- -- 85
2018-05-18 04:00:00 12.8 3 Norte 5 Noroeste 0 -- -- 86
2018-05-18 03:00:00 13 3 Sudoeste 6 Noroeste 0 -- -- 85
2018-05-18 02:00:00 13.8 0 Calma 6 Noroeste 0 -- -- 83
2018-05-18 01:00:00 14.6 4 Noroeste 8 Noroeste 0 -- -- 80
2018-05-18 00:00:00 16.1 2 Nordeste 9 Nordeste 0 -- -- 75
2018-05-17 23:00:00 16.2 5 Nordeste 12 Nordeste 0 -- -- 75
2018-05-17 22:00:00 16.9 4 Nordeste 8 Sudeste 0 -- -- 72
2018-05-17 21:00:00 17.7 3 Sudeste 13 Sudeste 0 -- -- 69
2018-05-17 20:00:00 19.2 6 Sur 21 Sur 0 -- -- 61
2018-05-17 19:00:00 20.8 10 Sur 23 Sudoeste 0 -- -- 58
2018-05-17 18:00:00 22.4 10 Sudoeste 21 Sudoeste 0 -- -- 49
2018-05-17 17:00:00 23.9 8 Este 21 Este 0 -- -- 48
2018-05-17 16:00:00 24.6 9 Este 34 Sudeste 0 -- -- 48
2018-05-17 15:00:00 24.3 11 Este 27 Este 0 -- -- 49
2018-05-17 14:00:00 23.7 14 Este 28 Este 0 -- -- 50
2018-05-17 13:00:00 22.8 11 Este 32 Nordeste 0 -- -- 50
2018-05-17 12:00:00 21.5 10 Nordeste 29 Nordeste 0 -- -- 56
2018-05-17 11:00:00 19.1 13 Nordeste 38 Norte 0 -- -- 60
2018-05-17 10:00:00 18.6 5 Norte 15 Nordeste 0 -- -- 58
2018-05-17 09:00:00 15.4 6 Noroeste 13 Noroeste 0 -- -- 80
2018-05-17 08:00:00 13.6 6 Noroeste 12 Noroeste 0 -- -- 79
2018-05-17 07:00:00 12.6 5 Noroeste 12 Oeste 0 -- -- 82
2018-05-17 06:00:00 12.2 6 Noroeste 13 Noroeste 0 -- -- 85
2018-05-17 05:00:00 12.3 4 Oeste 11 Noroeste 0 -- -- 85
2018-05-17 04:00:00 13.7 8 Noroeste 21 Norte 0 -- -- 81
2018-05-17 03:00:00 14.1 7 Noroeste 14 Noroeste 0 -- -- 79
2018-05-17 02:00:00 17.1 8 Nordeste 23 Nordeste 0 -- -- 63
2018-05-17 01:00:00 15.8 5 Norte 12 Noroeste 0 -- -- 78
2018-05-17 00:00:00 16.1 5 Noroeste 14 Nordeste 0 -- -- 76
2018-05-16 23:00:00 17.7 3 Sudeste 15 Este 0 -- -- 69
2018-05-16 22:00:00 18.2 3 Sudoeste 9 Nordeste 0 -- -- 67
2018-05-16 21:00:00 18.9 2 Este 16 Sur 0 -- -- 66
2018-05-16 20:00:00 20.1 7 Sudoeste 19 Sudoeste 0 -- -- 63
2018-05-16 19:00:00 21 9 Sur 20 Sur 0 -- -- 62
2018-05-16 18:00:00 21.2 10 Sur 20 Sur 0 -- -- 61
2018-05-16 17:00:00 22 7 Sur 15 Sudoeste 0 -- -- 59
2018-05-16 16:00:00 22.6 6 Sur 15 Noroeste 0 -- -- 59
2018-05-16 15:00:00 24 6 Oeste 15 Noroeste 0 -- -- 48
2018-05-16 14:00:00 22.2 6 Noroeste 13 Nordeste 0 -- -- 52
2018-05-16 13:00:00 19.3 4 Nordeste 17 Norte 0 -- -- 60
2018-05-16 12:00:00 18.8 8 Norte 22 Nordeste 0 -- -- 58
2018-05-16 11:00:00 19.3 9 Nordeste 24 Norte 0 -- -- 54
2018-05-16 10:00:00 18.4 4 Noroeste 11 Norte 0 -- -- 66
2018-05-16 09:00:00 16 7 Noroeste 13 Oeste 0 -- -- 71
2018-05-16 08:00:00 15.9 4 Noroeste 15 Nordeste 0 -- -- 69
2018-05-16 07:00:00 14.3 6 Norte 20 Noroeste 0 -- -- 70
2018-05-16 06:00:00 15.1 10 Nordeste 31 Nordeste 0 -- -- 65
2018-05-16 05:00:00 15.6 5 Nordeste 25 Noroeste 0 -- -- 66
2018-05-16 04:00:00 13.5 4 Noroeste 9 Nordeste 0 -- -- 81
2018-05-16 03:00:00 13.8 5 Noroeste 13 Noroeste 0 -- -- 78
2018-05-16 02:00:00 13.5 5 Oeste 11 Noroeste 0 -- -- 81
2018-05-16 01:00:00 14.8 6 Noroeste 14 Oeste 0 -- -- 75
2018-05-16 00:00:00 15.2 4 Noroeste 12 Noroeste 0 -- -- 73
2018-05-15 23:00:00 16.1 5 Norte 13 Norte 0 -- -- 66
2018-05-15 22:00:00 17.7 5 Oeste 15 Norte 0 -- -- 60
2018-05-15 21:00:00 18.7 5 Norte 22 Nordeste 0 -- -- 55
2018-05-15 20:00:00 19.9 8 Nordeste 29 Nordeste 0 -- -- 51
2018-05-15 19:00:00 21.3 13 Nordeste 26 Norte 0 -- -- 48
2018-05-15 18:00:00 22.3 9 Este 21 Este 0 -- -- 47
2018-05-15 17:00:00 21.2 5 Nordeste 15 Noroeste 0 -- -- 49
2018-05-15 16:00:00 19.8 4 Nordeste 12 Sudoeste 0 -- -- 52
2018-05-15 15:00:00 18.9 6 Oeste 12 Noroeste 0 -- -- 58
2018-05-15 14:00:00 17.4 5 Noroeste 10 Noroeste 0 -- -- 63
2018-05-15 13:00:00 17 5 Noroeste 15 Oeste 0 -- -- 62
2018-05-15 12:00:00 17 5 Noroeste 10 Oeste 0 -- -- 61
2018-05-15 11:00:00 15.7 5 Oeste 9 Noroeste 0 -- -- 72
2018-05-15 10:00:00 12.8 3 Sudeste 8 Sur 0 -- -- 86
2018-05-15 09:00:00 12.1 3 Sudoeste 5 Oeste 0 -- -- 88
2018-05-15 08:00:00 11.1 2 Norte 9 Noroeste 0 -- -- 91
2018-05-15 07:00:00 10.8 4 Sudoeste 9 Oeste 0 -- -- 91
2018-05-15 06:00:00 10.8 4 Oeste 9 Oeste 0 -- -- 91
2018-05-15 05:00:00 10.8 3 Oeste 11 Oeste 0 -- -- 91
2018-05-15 04:00:00 10.9 5 Oeste 12 Oeste 0 -- -- 90
2018-05-15 03:00:00 11.3 5 Sudoeste 15 Oeste 0 -- -- 85
2018-05-15 02:00:00 11.6 7 Noroeste 15 Noroeste 0 -- -- 82
2018-05-15 01:00:00 11.2 7 Noroeste 16 Noroeste 0 -- -- 86
2018-05-15 00:00:00 11.3 5 Noroeste 16 Noroeste 0 -- -- 85
2018-05-14 23:00:00 12.1 6 Noroeste 17 Oeste 0 -- -- 79
2018-05-14 22:00:00 12.2 7 Noroeste 15 Oeste 0 -- -- 79
2018-05-14 21:00:00 12.3 5 Noroeste 12 Oeste 0 -- -- 83
2018-05-14 20:00:00 12.7 5 Noroeste 27 Nordeste 0 -- -- 76
2018-05-14 19:00:00 13.1 8 Norte 24 Nordeste 0.2 -- -- 66
2018-05-14 18:00:00 12.5 5 Sudoeste 13 Sudoeste 0 -- -- 83
2018-05-14 17:00:00 12.7 8 Sudoeste 17 Sudoeste 0 -- -- 85
2018-05-14 16:00:00 13 5 Sudoeste 18 Nordeste 0.8 -- -- 79
2018-05-14 15:00:00 14.8 17 Este 30 Este 0.6 -- -- 66
2018-05-14 14:00:00 18.4 8 Sudoeste 21 Oeste 0 -- -- 44
2018-05-14 13:00:00 18.1 13 Oeste 24 Oeste 0 -- -- 45
2018-05-14 12:00:00 17.2 6 Sur 16 Sudoeste 0 -- -- 49
2018-05-14 11:00:00 16.3 9 Sudoeste 18 Sur 0 -- -- 54
2018-05-14 10:00:00 15 4 Sudeste 10 Sudeste 0 -- -- 57
2018-05-14 09:00:00 12 4 Oeste 10 Oeste 0 -- -- 73
2018-05-14 08:00:00 8.4 4 Noroeste 12 Noroeste 0 -- -- 83
2018-05-14 07:00:00 9 5 Noroeste 16 Norte 0 -- -- 74
2018-05-14 06:00:00 8.7 3 Nordeste 13 Noroeste 0 -- -- 83
2018-05-14 05:00:00 10.3 4 Oeste 14 Norte 0 -- -- 67
2018-05-14 04:00:00 11 5 Norte 19 Nordeste 0 -- -- 61
2018-05-14 03:00:00 10 4 Noroeste 9 Oeste 0 -- -- 81
2018-05-14 02:00:00 10.3 6 Noroeste 13 Nordeste 0 -- -- 78
2018-05-14 01:00:00 11.2 5 Nordeste 16 Norte 0 -- -- 67
2018-05-11 20:00:00 22 8 Sur 15 Sudeste 0 -- -- 64
2018-05-11 19:00:00 24.4 6 Sudeste 19 Sudeste 0 -- -- 56
2018-05-11 18:00:00 24.8 9 Sudeste 23 Sudeste 0 -- -- 54
2018-05-11 17:00:00 25.2 12 Sudeste 22 Sur 0 -- -- 52
2018-05-11 16:00:00 25.7 8 Sur 21 Sur 0 -- -- 49
2018-05-11 15:00:00 25.1 6 Sudeste 21 Sur 0 -- -- 52
2018-05-11 14:00:00 24.1 7 Sudeste 19 Sur 0 -- -- 54
2018-05-11 13:00:00 23.6 10 Sudoeste 23 Sur 0 -- -- 55
2018-05-11 12:00:00 22.4 7 Sudoeste 15 Sur 0 -- -- 56
2018-05-11 11:00:00 20.9 6 Sudoeste 13 Oeste 0 -- -- 62
2018-05-11 10:00:00 19.2 6 Sur 12 Sudoeste 0 -- -- 67
2018-05-11 09:00:00 17.7 3 Oeste 8 Noroeste 0 -- -- 74
2018-05-11 08:00:00 15.6 3 Noroeste 6 Sudoeste 0 -- -- 83
2018-05-11 07:00:00 15.5 3 Sudoeste 8 Oeste 0 -- -- 84
2018-05-11 06:00:00 16.2 3 Sudoeste 6 Este 0 -- -- 77
2018-05-11 05:00:00 15.9 3 Noroeste 10 Oeste 0 -- -- 78
2018-05-11 04:00:00 15.7 7 Noroeste 15 Noroeste 0 -- -- 83
2018-05-11 03:00:00 15.9 5 Noroeste 12 Oeste 0 -- -- 82
2018-05-11 02:00:00 17.4 6 Norte 21 Nordeste 0 -- -- 58
2018-05-11 01:00:00 17.6 6 Norte 27 Nordeste 0 -- -- 57
2018-05-11 00:00:00 17.8 9 Nordeste 29 Norte 0 -- -- 55
2018-05-10 23:00:00 18 16 Nordeste 30 Nordeste 0 -- -- 55
2018-05-10 22:00:00 18.3 13 Nordeste 31 Nordeste 0 -- -- 53
2018-05-10 21:00:00 19 15 Nordeste 32 Nordeste 0 -- -- 50
2018-05-10 20:00:00 18.7 6 Noroeste 17 Oeste 0 -- -- 69
2018-05-10 19:00:00 18.7 7 Noroeste 22 Noroeste 0 -- -- 68
2018-05-10 18:00:00 21.1 7 Norte 32 Nordeste 0 -- -- 42
2018-05-10 17:00:00 21.1 11 Nordeste 39 Nordeste 0 -- -- 43
2018-05-10 16:00:00 21.1 13 Nordeste 35 Norte 0 -- -- 46
2018-05-10 15:00:00 21 15 Nordeste 36 Nordeste 0 -- -- 47
2018-05-10 14:00:00 20.8 14 Nordeste 39 Nordeste 0 -- -- 45
2018-05-10 13:00:00 19.7 14 Nordeste 45 Nordeste 0 -- -- 47
2018-05-10 12:00:00 19.7 17 Nordeste 38 Norte 0 -- -- 47
2018-05-10 11:00:00 18.2 15 Nordeste 38 Nordeste 0 -- -- 50
2018-05-10 10:00:00 17.4 14 Nordeste 35 Nordeste 0 -- -- 54
2018-05-10 09:00:00 16.3 19 Nordeste 38 Nordeste 0 -- -- 57
2018-05-10 08:00:00 15.8 21 Nordeste 39 Nordeste 0 -- -- 61
2018-05-10 07:00:00 16.8 17 Nordeste 35 Nordeste 0 -- -- 59
2018-05-10 06:00:00 16.9 14 Nordeste 38 Nordeste 0 -- -- 60
2018-05-10 05:00:00 17 17 Nordeste 43 Norte 0 -- -- 63
2018-05-10 04:00:00 17.3 15 Nordeste 31 Este 0 -- -- 68
2018-05-10 03:00:00 15.6 4 Noroeste 10 Norte 0 -- -- 79
2018-05-10 02:00:00 16.8 4 Norte 18 Norte 0 -- -- 77
2018-05-10 01:00:00 15.8 2 Norte 9 Sur 0 -- -- 80
2018-05-10 00:00:00 17.7 0 Calma 9 Este 0 -- -- 71
2018-05-09 23:00:00 18.4 4 Este 9 Este 0 -- -- 68
2018-05-09 22:00:00 19.3 2 Sudoeste 13 Nordeste 0 -- -- 67
2018-05-09 21:00:00 20 5 Nordeste 13 Norte 0 -- -- 63
2018-05-09 20:00:00 20.9 2 Este 8 Nordeste 0 -- -- 67
2018-05-09 19:00:00 21.4 4 Este 14 Nordeste 0 -- -- 73
2018-05-09 18:00:00 20.3 3 Sudoeste 10 Este 0 -- -- 75
2018-05-09 17:00:00 20.6 4 Sur 13 Sur 0 -- -- 69
2018-05-09 16:00:00 21.8 7 Sur 18 Sur 0 -- -- 56
2018-05-09 15:00:00 22.1 5 Sudeste 19 Norte 0 -- -- 56
2018-05-09 14:00:00 22.8 10 Nordeste 23 Nordeste 0 -- -- 50
2018-05-09 13:00:00 22.8 9 Nordeste 27 Nordeste 0 -- -- 50
2018-05-09 12:00:00 22 8 Nordeste 27 Nordeste 0 -- -- 53
2018-05-09 11:00:00 18.8 10 Nordeste 36 Nordeste 0 -- -- 61
2018-05-09 10:00:00 17.7 14 Nordeste 30 Nordeste 0 -- -- 65
2018-05-09 09:00:00 17.7 14 Nordeste 33 Norte 0 -- -- 66
2018-05-09 08:00:00 17.4 14 Norte 36 Nordeste 0 -- -- 69
2018-05-09 07:00:00 18 12 Nordeste 30 Nordeste 0 -- -- 67
2018-05-09 06:00:00 17.8 6 Norte 18 Norte 0 -- -- 71
2018-05-09 05:00:00 18.2 8 Nordeste 24 Norte 0 -- -- 70
2018-05-09 04:00:00 18.4 6 Norte 21 Nordeste 0 -- -- 71
2018-05-09 03:00:00 16.4 5 Noroeste 12 Noroeste 0 -- -- 87
2018-05-09 02:00:00 17.5 4 Nordeste 9 Sudoeste 0 -- -- 83
2018-05-09 01:00:00 16.7 3 Noroeste 11 Noroeste 0 -- -- 86
2018-05-09 00:00:00 17.2 5 Noroeste 11 Norte 0 -- -- 86
2018-05-08 23:00:00 18.4 4 Sudoeste 21 Nordeste 0 -- -- 80
2018-05-08 22:00:00 19.1 5 Nordeste 16 Nordeste 0 -- -- 72
2018-05-08 21:00:00 19.9 3 Noroeste 10 Oeste 0 -- -- 76
2018-05-08 20:00:00 21.5 7 Oeste 11 Oeste 0 -- -- 76
2018-05-08 19:00:00 21.9 7 Sudoeste 14 Sur 0 -- -- 70
2018-05-08 18:00:00 21.6 5 Sudoeste 15 Oeste 0 -- -- 68
2018-05-08 17:00:00 21.5 7 Sudoeste 18 Oeste 0 -- -- 72
2018-05-08 16:00:00 20.9 8 Sudoeste 15 Sur 0 -- -- 71
2018-05-08 15:00:00 22.3 6 Sur 20 Sudeste 0 -- -- 67
2018-05-08 14:00:00 24.8 7 Sur 20 Sudeste 0 -- -- 57
2018-05-08 13:00:00 25.1 8 Sudeste 19 Nordeste 0 -- -- 59
2018-05-08 12:00:00 24.4 6 Norte 24 Norte 0 -- -- 53
2018-05-08 11:00:00 23.3 8 Nordeste 21 Nordeste 0 -- -- 55
2018-05-08 10:00:00 21.4 0 Calma 7 Nordeste 0 -- -- 70
2018-05-08 09:00:00 19.2 0 Calma 8 Norte 0 -- -- 82
2018-05-08 08:00:00 16.5 0 Calma 6 Este 0 -- -- 92
2018-05-08 07:00:00 15.9 0 Calma 8 Este 0 -- -- 92
2018-05-08 06:00:00 15.8 2 Noroeste 8 Noroeste 0 -- -- 92
2018-05-08 05:00:00 15.3 5 Noroeste 8 Noroeste 0 -- -- 93
2018-05-08 04:00:00 15.9 0 Calma 5 Noroeste 0 -- -- 93
2018-05-08 03:00:00 15.9 3 Sur 7 Noroeste 0 -- -- 92
2018-05-08 02:00:00 16.5 0 Calma 8 Norte 0 -- -- 92
2018-05-08 01:00:00 16.3 5 Noroeste 10 Norte 0 -- -- 92
2018-05-08 00:00:00 16.5 3 Sur 6 Sur 0 -- -- 91
2018-05-07 23:00:00 16.6 4 Noroeste 13 Noroeste 0 -- -- 90
2018-05-07 22:00:00 17.3 4 Noroeste 11 Este 0 -- -- 89
2018-05-07 21:00:00 17.8 2 Sudoeste 9 Oeste 0 -- -- 90
2018-05-07 20:00:00 18.1 6 Noroeste 12 Noroeste 0 -- -- 88
2018-05-07 19:00:00 18.5 6 Noroeste 16 Oeste 4.4 -- -- 84
2018-05-07 18:00:00 22.9 6 Noroeste 24 Noroeste 0 -- -- 57
2018-05-07 17:00:00 25.7 10 Sudeste 23 Sudeste 0 -- -- 52
2018-05-07 16:00:00 26 9 Sudeste 25 Sudeste 0 -- -- 55
2018-05-07 15:00:00 25.7 8 Sudeste 20 Sudeste 0 -- -- 56
2018-05-07 14:00:00 25.5 8 Sur 17 Sudoeste 0 -- -- 61
2018-05-07 13:00:00 24.6 6 Sudoeste 14 Sudoeste 0 -- -- 58
2018-05-07 12:00:00 22.7 5 Sudoeste 10 Sudoeste 0 -- -- 72
2018-05-07 11:00:00 19.5 0 Calma 6 Sur 0.8 -- -- 86
2018-05-07 10:00:00 19.4 0 Calma 7 Oeste 0 -- -- 79
2018-05-07 09:00:00 17.9 2 Noroeste 6 Sudoeste 0 -- -- 90
2018-05-07 08:00:00 16.6 3 Oeste 8 Noroeste 0 -- -- 94
2018-05-07 07:00:00 16.4 4 Noroeste 15 Nordeste 0.2 -- -- 93
2018-05-07 06:00:00 16.2 3 Nordeste 9 Este 0 -- -- 93
2018-05-07 05:00:00 16.4 4 Noroeste 9 Noroeste 0 -- -- 93
2018-05-07 04:00:00 16.4 3 Sudoeste 5 Sudoeste 0 -- -- 93
2018-05-07 03:00:00 16.3 2 Sur 6 Oeste 0 -- -- 92
2018-05-07 02:00:00 16.7 4 Oeste 8 Noroeste 0 -- -- 91
2018-05-07 01:00:00 16.8 0 Calma 11 Norte 0 -- -- 91
2018-05-07 00:00:00 16.8 4 Norte 10 Norte 0.4 -- -- 89
2018-05-06 23:00:00 16.8 4 Noroeste 13 Sur 0.4 -- -- 87
2018-05-06 22:00:00 18 6 Sur 13 Sur 0 -- -- 78
2018-05-06 21:00:00 19.5 4 Sur 12 Sudoeste 0 -- -- 72
2018-05-06 20:00:00 20.1 5 Sudoeste 15 Sur 0 -- -- 66
2018-05-06 19:00:00 21.5 9 Sudoeste 14 Sudoeste 0 -- -- 67
2018-05-06 18:00:00 23.2 8 Sur 17 Sur 0 -- -- 61
2018-05-06 17:00:00 24.6 9 Sur 19 Este 0 -- -- 58
2018-05-06 16:00:00 25.2 7 Sudeste 14 Sudeste 0 -- -- 53
2018-05-06 15:00:00 24.7 5 Nordeste 15 Norte 0 -- -- 53
2018-05-06 14:00:00 22.8 6 Nordeste 14 Nordeste 0 -- -- 61
2018-05-06 13:00:00 20.4 5 Noroeste 12 Noroeste 0 -- -- 75
2018-05-06 12:00:00 17.8 3 Sudeste 13 Noroeste 0.2 -- -- 85
2018-05-06 11:00:00 16 5 Noroeste 14 Sudoeste 0.2 -- -- 88
2018-05-06 10:00:00 15.2 4 Sur 17 Noroeste 0 -- -- 91
2018-05-06 09:00:00 15 5 Noroeste 19 Noroeste 0.2 -- -- 92
2018-05-06 08:00:00 14.8 9 Noroeste 15 Sur 1.2 -- -- 90
2018-05-06 07:00:00 16.5 11 Sur 21 Sudoeste 0.8 -- -- 78
2018-05-06 06:00:00 19.3 6 Norte 18 Nordeste 0 -- -- 56
2018-05-06 05:00:00 19.3 8 Nordeste 17 Nordeste 0 -- -- 55
2018-05-06 04:00:00 15.5 4 Norte 10 Norte 0 -- -- 70
2018-05-06 03:00:00 14.8 0 Calma 4 Sudoeste 0 -- -- 76
2018-05-06 02:00:00 15.9 0 Calma 9 Noroeste 0 -- -- 72
2018-05-06 01:00:00 16.5 0 Calma 4 Sur 0 -- -- 72
2018-05-06 00:00:00 17.6 0 Calma 10 Nordeste 0 -- -- 67
2018-05-05 23:00:00 18.8 4 Noroeste 18 Nordeste 0 -- -- 64
2018-05-05 22:00:00 20.2 9 Nordeste 24 Nordeste 0 -- -- 58
2018-05-05 21:00:00 20.8 6 Norte 19 Nordeste 0 -- -- 55
2018-05-05 20:00:00 21.9 7 Norte 19 Norte 0 -- -- 52
2018-05-05 19:00:00 23.3 5 Norte 15 Noroeste 0 -- -- 50
2018-05-05 18:00:00 22.9 6 Nordeste 18 Norte 0 -- -- 50
2018-05-05 17:00:00 22.4 3 Sudeste 13 Sudeste 0 -- -- 53
2018-05-05 16:00:00 22.3 6 Sudeste 23 Nordeste 0 -- -- 53
2018-05-05 15:00:00 22.9 11 Nordeste 26 Nordeste 0 -- -- 49
2018-05-05 14:00:00 22.5 10 Nordeste 26 Nordeste 0 -- -- 52
2018-05-05 13:00:00 20 8 Nordeste 18 Nordeste 0 -- -- 60
2018-05-05 12:00:00 18.5 10 Nordeste 27 Nordeste 0 -- -- 65
2018-05-05 11:00:00 17.5 13 Nordeste 39 Nordeste 0 -- -- 68
2018-05-05 10:00:00 18 17 Nordeste 38 Nordeste 0 -- -- 63
2018-05-05 09:00:00 19 13 Nordeste 28 Nordeste 0 -- -- 55
2018-05-05 08:00:00 18.8 10 Nordeste 29 Nordeste 0 -- -- 56
2018-05-05 07:00:00 18.7 10 Nordeste 32 Nordeste 0 -- -- 56
2018-05-05 06:00:00 18.7 12 Nordeste 35 Norte 0 -- -- 55
2018-05-05 05:00:00 18.5 8 Norte 31 Nordeste 0 -- -- 56
2018-05-05 04:00:00 18.3 9 Nordeste 26 Nordeste 0 -- -- 56
2018-05-05 03:00:00 18.5 12 Nordeste 35 Norte 0 -- -- 56
2018-05-05 02:00:00 18.8 12 Norte 42 Nordeste 0 -- -- 55
2018-05-05 01:00:00 18.8 17 Nordeste 34 Nordeste 0 -- -- 54
2018-05-05 00:00:00 18.8 12 Nordeste 32 Norte 0 -- -- 53
2018-05-04 23:00:00 18.9 16 Nordeste 36 Nordeste 0 -- -- 51
2018-05-04 22:00:00 18.6 13 Nordeste 35 Nordeste 0 -- -- 52
2018-05-04 21:00:00 18.5 18 Nordeste 48 Nordeste 0 -- -- 52
2018-05-04 20:00:00 18.8 18 Nordeste 42 Nordeste 0 -- -- 51
2018-05-04 19:00:00 19.2 21 Nordeste 48 Nordeste 0 -- -- 49
2018-05-04 18:00:00 19.7 18 Nordeste 46 Nordeste 0 -- -- 48
2018-05-04 17:00:00 20 22 Nordeste 51 Norte 0 -- -- 47
2018-05-04 16:00:00 20.4 23 Nordeste 46 Nordeste 0 -- -- 46
2018-05-04 15:00:00 20.1 21 Nordeste 43 Nordeste 0 -- -- 46
2018-05-04 14:00:00 19.7 15 Nordeste 41 Norte 0 -- -- 47
2018-05-04 13:00:00 19.6 15 Nordeste 38 Nordeste 0 -- -- 47
2018-05-04 12:00:00 18.4 13 Nordeste 34 Nordeste 0 -- -- 51
2018-05-04 11:00:00 18.3 12 Nordeste 50 Este 0 -- -- 48
2018-05-04 10:00:00 18.1 16 Nordeste 35 Nordeste 0 -- -- 47
2018-05-04 09:00:00 17.8 16 Nordeste 37 Norte 0 -- -- 47
2018-05-04 08:00:00 16.8 10 Nordeste 35 Norte 0 -- -- 49
2018-05-04 07:00:00 17.1 14 Nordeste 51 Nordeste 0 -- -- 46
2018-05-04 06:00:00 16.6 22 Nordeste 59 Nordeste 0 -- -- 46
2018-05-04 05:00:00 16.1 18 Nordeste 49 Nordeste 0 -- -- 50
2018-05-04 04:00:00 16.2 20 Nordeste 46 Nordeste 0 -- -- 50
2018-05-04 03:00:00 16.5 18 Nordeste 46 Nordeste 0 -- -- 51
2018-05-04 02:00:00 16.7 19 Nordeste 44 Nordeste 0 -- -- 53
2018-05-04 01:00:00 16.8 18 Nordeste 47 Nordeste 0 -- -- 51
2018-05-04 00:00:00 16.1 22 Nordeste 57 Nordeste 0 -- -- 57
2018-05-03 23:00:00 17.2 20 Norte 52 Nordeste 0 -- -- 51
2018-05-03 22:00:00 17.3 19 Norte 62 Nordeste 0 -- -- 51
2018-05-03 21:00:00 17.7 16 Norte 59 Norte 0 -- -- 49
2018-05-03 20:00:00 18.1 19 Norte 54 Norte 0 -- -- 45
2018-05-03 19:00:00 18.3 18 Norte 48 Norte 0 -- -- 44
2018-05-03 18:00:00 18.7 19 Norte 49 Norte 0 -- -- 44
2018-05-03 17:00:00 19.5 15 Nordeste 48 Norte 0 -- -- 43
2018-05-03 16:00:00 18.9 18 Nordeste 61 Norte 0 -- -- 44
2018-05-03 15:00:00 19 16 Nordeste 46 Nordeste 0 -- -- 45
2018-05-03 14:00:00 19.1 18 Nordeste 48 Norte 0 -- -- 46
2018-05-03 13:00:00 18.5 22 Nordeste 50 Norte 0 -- -- 48
2018-05-03 12:00:00 18.3 22 Nordeste 48 Nordeste 0 -- -- 52
2018-05-03 11:00:00 17.4 15 Nordeste 36 Nordeste 0 -- -- 56
2018-05-03 10:00:00 15.9 11 Nordeste 40 Nordeste 0 -- -- 60
2018-05-03 09:00:00 14.8 13 Nordeste 38 Nordeste 0 -- -- 64
2018-05-03 08:00:00 14.2 21 Nordeste 42 Nordeste 0 -- -- 65
2018-05-03 07:00:00 13.9 6 Norte 31 Nordeste 0 -- -- 65
2018-05-03 06:00:00 13.3 5 Noroeste 23 Nordeste 0 -- -- 65
2018-05-03 05:00:00 13.4 5 Norte 29 Norte 0 -- -- 61
2018-05-03 04:00:00 14 7 Nordeste 29 Nordeste 0 -- -- 58
2018-05-03 03:00:00 14.1 17 Nordeste 35 Nordeste 0 -- -- 60
2018-05-03 02:00:00 14.9 13 Norte 39 Norte 0 -- -- 53
2018-05-03 01:00:00 15.2 13 Nordeste 40 Nordeste 0 -- -- 52
2018-05-03 00:00:00 15.9 19 Nordeste 45 Nordeste 0 -- -- 50
2018-05-02 23:00:00 16.4 21 Nordeste 48 Norte 0 -- -- 48
2018-05-02 22:00:00 17.1 11 Norte 40 Nordeste 0 -- -- 43
2018-05-02 21:00:00 18.2 17 Nordeste 43 Norte 0 -- -- 40
2018-05-02 20:00:00 19.6 12 Nordeste 38 Nordeste 0 -- -- 37
2018-05-02 19:00:00 21.2 13 Nordeste 39 Nordeste 0 -- -- 33
2018-05-02 18:00:00 21.9 17 Nordeste 44 Nordeste 0 -- -- 29
2018-05-02 17:00:00 22 18 Nordeste 45 Nordeste 0 -- -- 27
2018-05-02 16:00:00 22.1 18 Nordeste 39 Nordeste 0 -- -- 27
2018-05-02 15:00:00 21.7 18 Nordeste 50 Norte 0 -- -- 27
2018-05-02 14:00:00 20.6 19 Nordeste 45 Norte 0 -- -- 32
2018-05-02 13:00:00 19.5 17 Nordeste 40 Nordeste 0 -- -- 33
2018-05-02 12:00:00 18.1 16 Nordeste 37 Nordeste 0 -- -- 37
2018-05-02 11:00:00 16.8 12 Nordeste 27 Nordeste 0 -- -- 45
2018-05-02 10:00:00 14.7 15 Nordeste 43 Nordeste 0 -- -- 52
2018-05-02 09:00:00 13.3 17 Nordeste 39 Nordeste 0 -- -- 54
2018-05-02 08:00:00 11.9 13 Nordeste 30 Nordeste 0 -- -- 56
2018-05-02 07:00:00 8.8 7 Nordeste 18 Este 0 -- -- 64
2018-05-02 06:00:00 7.4 4 Noroeste 12 Oeste 0 -- -- 69
2018-05-02 05:00:00 7.2 5 Noroeste 22 Norte 0 -- -- 71
2018-05-02 04:00:00 11.7 10 Norte 26 Nordeste 0 -- -- 55
2018-05-02 03:00:00 12.1 8 Norte 27 Norte 0 -- -- 52
2018-05-02 02:00:00 12.6 7 Norte 32 Norte 0 -- -- 51
2018-05-02 01:00:00 12.7 9 Norte 29 Nordeste 0 -- -- 50
2018-05-02 00:00:00 12.5 7 Norte 27 Norte 0 -- -- 53
2018-05-01 23:00:00 12.8 9 Norte 27 Norte 0 -- -- 54
2018-05-01 22:00:00 13.3 7 Norte 21 Norte 0 -- -- 53
2018-05-01 21:00:00 14.1 8 Nordeste 23 Nordeste 0 -- -- 46
2018-05-01 20:00:00 15 9 Norte 39 Nordeste 0 -- -- 46
2018-05-01 19:00:00 16.7 15 Nordeste 36 Norte 0 -- -- 44
2018-05-01 18:00:00 17 14 Nordeste 40 Nordeste 0 -- -- 38
2018-05-01 17:00:00 17.9 15 Nordeste 43 Nordeste 0 -- -- 39
2018-05-01 16:00:00 17.3 19 Nordeste 39 Norte 0 -- -- 44
2018-05-01 15:00:00 17 15 Nordeste 37 Nordeste 0 -- -- 44
2018-05-01 14:00:00 16.9 10 Nordeste 31 Nordeste 0 -- -- 43
2018-05-01 13:00:00 15 18 Nordeste 35 Norte 0 -- -- 47
2018-05-01 12:00:00 14.4 15 Nordeste 39 Nordeste 0 -- -- 52
2018-05-01 11:00:00 13.6 17 Nordeste 38 Nordeste 0 -- -- 58
2018-05-01 10:00:00 12.1 9 Nordeste 20 Nordeste 0 -- -- 60
2018-05-01 09:00:00 11.3 5 Norte 23 Nordeste 0 -- -- 65
2018-05-01 08:00:00 10.9 11 Nordeste 30 Nordeste 0 -- -- 62
2018-05-01 07:00:00 10.2 5 Norte 17 Norte 0 -- -- 66
2018-05-01 06:00:00 10.4 10 Nordeste 26 Nordeste 0 -- -- 65
2018-05-01 05:00:00 10.7 5 Norte 22 Norte 0 -- -- 64
2018-05-01 04:00:00 11 6 Norte 29 Norte 0 -- -- 63
2018-05-01 03:00:00 11.2 13 Nordeste 29 Nordeste 0 -- -- 62
2018-05-01 02:00:00 10.7 13 Nordeste 38 Nordeste 0 -- -- 65
2018-05-01 01:00:00 10.7 18 Nordeste 41 Nordeste 0 -- -- 67
2018-05-01 00:00:00 11 17 Nordeste 46 Nordeste 0 -- -- 71
2018-04-30 23:00:00 12.2 19 Nordeste 44 Nordeste 0 -- -- 70
2018-04-30 22:00:00 12.9 20 Nordeste 40 Nordeste 0 -- -- 71
2018-04-30 21:00:00 15.4 5 Norte 19 Norte 0 -- -- 63
2018-04-30 20:00:00 16.7 9 Norte 22 Este 0 -- -- 61
2018-04-30 19:00:00 18.4 8 Noroeste 26 Oeste 0 -- -- 56
2018-04-30 18:00:00 19.3 15 Sudoeste 31 Sudoeste 0 -- -- 44
2018-04-30 17:00:00 19.8 4 Sudoeste 23 Sudeste 0 -- -- 46
2018-04-30 16:00:00 18.6 10 Sudeste 24 Sudeste 0 -- -- 57
2018-04-30 15:00:00 17.9 13 Sur 28 Este 0 -- -- 60
2018-04-30 14:00:00 17.9 13 Sur 29 Sur 0 -- -- 59
2018-04-30 13:00:00 18.1 8 Sur 20 Sur 0 -- -- 54
2018-04-30 12:00:00 17.2 8 Sur 16 Sur 0 -- -- 54
2018-04-30 11:00:00 16 5 Sur 14 Sudoeste 0 -- -- 60
2018-04-30 10:00:00 14.4 5 Sudoeste 9 Sudoeste 0 -- -- 69
2018-04-30 09:00:00 11.4 3 Noroeste 6 Noroeste 0 -- -- 80
2018-04-30 08:00:00 8.4 2 Noroeste 10 Noroeste 0 -- -- 89
2018-04-30 07:00:00 6.5 6 Noroeste 13 Noroeste 0 -- -- 92
2018-04-30 06:00:00 6.8 3 Noroeste 11 Este 0 -- -- 91
2018-04-30 05:00:00 7 3 Oeste 10 Noroeste 0 -- -- 91
2018-04-30 04:00:00 7.2 0 Calma 8 Oeste 0 -- -- 90
2018-04-30 03:00:00 7.5 0 Calma 8 Noroeste 0 -- -- 90
2018-04-30 02:00:00 8.9 0 Calma 8 Noroeste 0 -- -- 86
2018-04-30 01:00:00 8.9 5 Noroeste 9 Noroeste 0 -- -- 86
2018-04-30 00:00:00 10.2 3 Sudoeste 12 Norte 0 -- -- 81
2018-04-29 23:00:00 11.4 4 Nordeste 13 Este 0 -- -- 76
2018-04-29 22:00:00 12.4 5 Noroeste 8 Noroeste 0 -- -- 72
2018-04-29 21:00:00 13.2 3 Norte 19 Nordeste 0 -- -- 66
2018-04-29 20:00:00 14.3 8 Nordeste 24 Oeste 0 -- -- 67
2018-04-29 19:00:00 14.7 9 Oeste 31 Oeste 0 -- -- 60
2018-04-29 18:00:00 14.1 6 Oeste 30 Oeste 0 -- -- 63
2018-04-29 17:00:00 15.5 18 Oeste 43 Noroeste 0 -- -- 59
2018-04-29 16:00:00 15.5 22 Noroeste 46 Oeste 0 -- -- 61
2018-04-29 15:00:00 15 5 Sudoeste 27 Sudoeste 0.6 -- -- 85
2018-04-29 14:00:00 18.1 17 Sudoeste 42 Sudoeste 0 -- -- 76
2018-04-29 13:00:00 18 13 Sudoeste 30 Sudoeste 0.2 -- -- 82
2018-04-29 12:00:00 16.1 7 Sur 15 Sur 0 -- -- 94
2018-04-29 11:00:00 14.9 0 Calma 23 Sudoeste 2.2 -- -- 94
2018-04-29 10:00:00 15.5 9 Sudoeste 23 Oeste 1.2 -- -- 90
2018-04-29 09:00:00 16.1 9 Oeste 20 Oeste 0 -- -- 87
2018-04-29 08:00:00 15 11 Sudoeste 23 Sudoeste 0 -- -- 90
2018-04-29 07:00:00 14.2 11 Sudoeste 22 Oeste 0 -- -- 95
2018-04-29 06:00:00 13.6 9 Sudoeste 17 Sudoeste 0 -- -- 95
2018-04-29 05:00:00 13.7 2 Oeste 10 Oeste 0 -- -- 94
2018-04-29 04:00:00 13.8 4 Oeste 9 Sudoeste 0 -- -- 94
2018-04-29 03:00:00 14.1 3 Sudoeste 7 Sudoeste 0 -- -- 93
2018-04-29 02:00:00 14.5 4 Sudoeste 8 Sur 0 -- -- 92
2018-04-29 01:00:00 14.9 3 Oeste 9 Sudoeste 0 -- -- 93
2018-04-29 00:00:00 15.4 5 Sur 12 Sur 0 -- -- 90
2018-04-28 23:00:00 16.1 5 Sur 12 Sur 0 -- -- 86
2018-04-28 22:00:00 16.9 4 Este 12 Este 0 -- -- 84
2018-04-28 21:00:00 17.8 5 Este 14 Sudeste 0 -- -- 79
2018-04-28 20:00:00 19.1 5 Sudeste 21 Sudeste 0 -- -- 74
2018-04-28 19:00:00 21.8 6 Sudeste 25 Sur 0 -- -- 65
2018-04-28 18:00:00 22.8 12 Sur 26 Sur 0 -- -- 55
2018-04-28 17:00:00 23.5 12 Sur 31 Sur 0 -- -- 47
2018-04-28 16:00:00 23.4 16 Sur 32 Sur 0 -- -- 49
2018-04-28 15:00:00 23.4 13 Sur 29 Sur 0 -- -- 50
2018-04-28 14:00:00 23.6 13 Sur 32 Sur 0 -- -- 52
2018-04-28 13:00:00 23.2 10 Sur 25 Sudeste 0 -- -- 52
2018-04-28 12:00:00 22.4 11 Sudoeste 22 Sudoeste 0 -- -- 55
2018-04-28 11:00:00 21.4 9 Sudoeste 23 Sudoeste 0 -- -- 57
2018-04-28 10:00:00 19.7 10 Sudoeste 17 Oeste 0 -- -- 62
2018-04-28 09:00:00 16.5 2 Sudoeste 5 Sudoeste 0 -- -- 75
2018-04-28 08:00:00 13.7 3 Sudeste 7 Noroeste 0 -- -- 82
2018-04-28 07:00:00 13 4 Noroeste 6 Noroeste 0 -- -- 83
2018-04-28 06:00:00 13.7 4 Noroeste 10 Oeste 0 -- -- 81
2018-04-28 05:00:00 13.7 4 Noroeste 11 Noroeste 0 -- -- 80
2018-04-28 04:00:00 14 4 Este 10 Este 0 -- -- 78
2018-04-28 03:00:00 14.6 4 Noroeste 11 Noroeste 0 -- -- 78
2018-04-28 02:00:00 14.5 5 Noroeste 10 Oeste 0 -- -- 79
2018-04-28 01:00:00 15.2 3 Oeste 6 Oeste 0 -- -- 76
2018-04-28 00:00:00 15.9 3 Noroeste 8 Oeste 0 -- -- 75